Homer, Louisiana
Current Conditions -  °F | °C
As of 11:35 AM on Friday 24 Oct 2014 (Local Time) from KMNE Reporting Station
Clear Clear  
Wind Chill: 66°   Ceiling: Unl
Heat Index: 66°   Visibility: 10mi
Dew Point: 52°   Wind: 5mph
Humidity: 60%   Direction: 350°N
Pressure: 30.19"   Gusts: NA
Location:  32.79°N, 93.06°W
Report Text: KMNE 241635Z AUTO 35004KT 10SM CLR 19/11 A3019 RMK AO2
Loading
Personal Weather Stations






























Interactive Weather Map
Tropical Storm Tracking
New forecast layout! Learn more

10-Day Weather Forecast

Advertisements
Track Severe Weather on mobile